createdAt,value
2023-01-21T00:02:04.947Z,99126.25
2023-01-21T00:04:34.499Z,99134.09
2023-01-21T00:07:01.581Z,99131.63
2023-01-21T00:09:28.341Z,99137.03
2023-01-21T00:14:21.674Z,99134.63
2023-01-21T00:16:48.179Z,99136.13
2023-01-21T00:19:14.710Z,99135.44
2023-01-21T00:21:41.359Z,99135.16
2023-01-21T00:24:07.894Z,99136.00
2023-01-21T00:26:34.629Z,99135.19
2023-01-21T00:31:35.763Z,99145.69
2023-01-21T00:34:02.461Z,99153.25
2023-01-21T00:39:23.607Z,99152.53
2023-01-21T00:44:19.905Z,99155.09
2023-01-21T00:46:48.939Z,99148.63
2023-01-21T00:49:15.725Z,99151.59
2023-01-21T00:51:43.165Z,99161.13
2023-01-21T00:54:10.293Z,99162.59
2023-01-21T00:59:44.593Z,99161.56
2023-01-21T01:02:11.930Z,99168.69
2023-01-21T01:04:47.990Z,99174.78
2023-01-21T01:07:26.636Z,99173.00
2023-01-21T01:12:30.342Z,99169.13
2023-01-21T01:15:00.277Z,99189.63
2023-01-21T01:45:08.164Z,99198.75
2023-01-21T01:50:42.674Z,99199.28
2023-01-21T01:53:17.241Z,99193.00
2023-01-21T01:55:48.087Z,99192.31
2023-01-21T01:58:17.528Z,99201.91
2023-01-21T02:00:46.042Z,99190.69
2023-01-21T02:03:34.248Z,99193.66
2023-01-21T02:06:02.751Z,99190.97
2023-01-21T02:08:31.107Z,99190.16
2023-01-21T02:10:58.074Z,99203.78
2023-01-21T02:13:29.115Z,99193.94
2023-01-21T02:16:27.299Z,99199.09
2023-01-21T02:19:11.637Z,99195.19
2023-01-21T02:21:49.476Z,99198.28
2023-01-21T02:25:02.536Z,99192.22
2023-01-21T02:28:01.282Z,99191.00
2023-01-21T02:30:46.144Z,99194.50
2023-01-21T02:33:31.830Z,99196.66
2023-01-21T02:36:12.135Z,99193.03
2023-01-21T02:41:34.786Z,99187.38
2023-01-21T02:44:21.650Z,99185.47
2023-01-21T02:49:27.383Z,99188.84
2023-01-21T02:54:39.124Z,99193.16
2023-01-21T02:57:11.995Z,99194.66
2023-01-21T02:59:42.206Z,99195.06
2023-01-21T03:02:39.611Z,99201.13
2023-01-21T03:05:34.578Z,99190.59
2023-01-21T03:08:11.487Z,99201.94
2023-01-21T03:16:46.828Z,99202.22
2023-01-21T03:19:17.021Z,99207.31
2023-01-21T03:21:44.657Z,99203.16
2023-01-21T03:24:14.348Z,99206.09
2023-01-21T03:26:45.654Z,99207.72
2023-01-21T03:29:19.447Z,99207.72
2023-01-21T03:31:50.829Z,99204.78
2023-01-21T03:34:20.140Z,99211.22
2023-01-21T03:36:46.856Z,99209.88
2023-01-21T03:39:21.765Z,99201.09
2023-01-21T03:41:48.583Z,99204.47
2023-01-21T03:44:15.274Z,99208.38
2023-01-21T03:49:25.476Z,99202.44
2023-01-21T03:51:55.627Z,99204.75
2023-01-21T03:54:22.624Z,99199.75
2023-01-21T03:56:49.123Z,99205.16
2023-01-21T03:59:15.563Z,99201.50
2023-01-21T04:01:42.146Z,99203.00
2023-01-21T04:04:09.627Z,99201.13
2023-01-21T04:06:37.068Z,99200.97
2023-01-21T04:09:05.576Z,99201.00
2023-01-21T04:11:32.687Z,99210.66
2023-01-21T04:15:04.208Z,99199.63
2023-01-21T04:17:32.892Z,99201.13
2023-01-21T04:19:59.751Z,99204.75
2023-01-21T04:24:57.657Z,99201.91
2023-01-21T04:27:24.366Z,99203.16
2023-01-21T04:32:17.671Z,99205.00
2023-01-21T04:34:44.388Z,99201.22
2023-01-21T04:39:37.605Z,99206.22
2023-01-21T04:42:05.324Z,99209.72
2023-01-21T04:44:34.907Z,99208.66
2023-01-21T04:47:01.546Z,99214.28
2023-01-21T04:51:54.774Z,99200.97
2023-01-21T04:56:47.950Z,99197.19
2023-01-21T04:59:14.572Z,99202.44
2023-01-21T05:01:41.205Z,99200.16
2023-01-21T05:04:07.639Z,99206.50
2023-01-21T05:06:34.289Z,99198.03
2023-01-21T05:09:00.828Z,99204.22
2023-01-21T05:13:57.243Z,99205.84
2023-01-21T05:18:52.754Z,99205.56
2023-01-21T05:21:19.375Z,99206.09
2023-01-21T05:23:45.965Z,99212.31
2023-01-21T05:26:12.487Z,99206.38
2023-01-21T05:28:39.230Z,99205.03
2023-01-21T05:31:05.919Z,99219.59
2023-01-21T05:36:01.662Z,99216.22
2023-01-21T05:38:29.042Z,99215.94
2023-01-21T05:41:00.615Z,99222.81
2023-01-21T05:43:27.819Z,99227.28
2023-01-21T05:45:54.936Z,99224.72
2023-01-21T05:50:49.045Z,99229.03
2023-01-21T05:53:17.122Z,99226.44
2023-01-21T05:55:43.756Z,99232.78
2023-01-21T05:58:10.223Z,99229.69
2023-01-21T06:05:57.324Z,99230.91
2023-01-21T06:10:50.644Z,99243.44
2023-01-21T06:13:18.352Z,99236.97
2023-01-21T06:15:45.036Z,99241.41
2023-01-21T06:18:14.271Z,99234.66
2023-01-21T06:20:41.020Z,99242.09
2023-01-21T06:23:08.991Z,99237.09
2023-01-21T06:25:35.517Z,99241.81
2023-01-21T06:28:02.043Z,99239.41
2023-01-21T06:32:55.328Z,99243.59
2023-01-21T06:35:22.220Z,99250.88
2023-01-21T06:37:48.860Z,99253.69
2023-01-21T06:40:16.375Z,99252.88
2023-01-21T06:42:46.301Z,99254.38
2023-01-21T06:45:12.884Z,99251.00
2023-01-21T06:47:43.709Z,99243.31
2023-01-21T06:50:16.004Z,99254.78
2023-01-21T06:52:44.059Z,99253.28
2023-01-21T06:55:10.632Z,99243.59
2023-01-21T06:57:38.635Z,99254.22
2023-01-21T07:00:07.270Z,99248.03
2023-01-21T07:05:00.650Z,99267.44
2023-01-21T07:09:53.998Z,99269.31
2023-01-21T07:12:20.745Z,99273.63
2023-01-21T07:14:49.740Z,99272.16
2023-01-21T07:17:16.643Z,99281.88
2023-01-21T07:19:43.355Z,99279.44
2023-01-21T07:22:10.051Z,99275.66
2023-01-21T07:24:36.742Z,99279.56
2023-01-21T07:27:05.303Z,99282.25
2023-01-21T07:29:34.624Z,99276.72
2023-01-21T07:32:01.357Z,99284.84
2023-01-21T07:34:30.735Z,99285.91
2023-01-21T07:36:57.523Z,99283.06
2023-01-21T07:39:25.083Z,99279.44
2023-01-21T07:41:53.880Z,99285.38
2023-01-21T07:44:20.531Z,99290.38
2023-01-21T07:46:47.194Z,99286.31
2023-01-21T07:49:17.330Z,99281.06
2023-01-21T07:51:48.066Z,99289.56
2023-01-21T07:54:15.356Z,99290.34
2023-01-21T07:56:42.281Z,99284.97
2023-01-21T07:59:10.600Z,99282.00
2023-01-21T08:01:37.648Z,99278.22
2023-01-21T08:04:04.440Z,99275.25
2023-01-21T08:09:00.320Z,99276.19
2023-01-21T08:11:26.976Z,99273.78
2023-01-21T08:13:53.644Z,99281.06
2023-01-21T08:16:20.611Z,99284.41
2023-01-21T08:18:47.297Z,99278.31
2023-01-21T08:21:14.133Z,99281.97
2023-01-21T08:23:40.859Z,99284.25
2023-01-21T08:26:10.175Z,99284.09
2023-01-21T08:28:36.797Z,99293.28
2023-01-21T08:31:06.313Z,99289.88
2023-01-21T08:36:04.869Z,99292.28
2023-01-21T08:38:32.106Z,99292.59
2023-01-21T08:43:44.156Z,99293.63
2023-01-21T08:46:10.915Z,99299.81
2023-01-21T08:48:38.674Z,99290.59
2023-01-21T08:51:05.808Z,99290.88
2023-01-21T08:53:33.159Z,99296.34
2023-01-21T08:56:01.427Z,99298.41
2023-01-21T08:58:29.500Z,99302.47
2023-01-21T09:00:59.094Z,99308.66
2023-01-21T09:05:53.075Z,99311.63
2023-01-21T09:11:01.389Z,99315.38
2023-01-21T09:13:37.197Z,99322.34
2023-01-21T09:18:40.299Z,99335.25
2023-01-21T09:23:38.076Z,99330.88
2023-01-21T09:26:06.041Z,99343.53
2023-01-21T09:28:40.171Z,99346.16
2023-01-21T09:31:18.323Z,99352.66
2023-01-21T09:33:52.019Z,99354.81
2023-01-21T09:38:57.472Z,99361.63
2023-01-21T09:41:27.030Z,99357.16
2023-01-21T09:43:53.515Z,99368.50
2023-01-21T09:46:44.685Z,99363.88
2023-01-21T09:49:22.457Z,99363.63
2023-01-21T09:51:55.321Z,99365.38
2023-01-21T09:54:36.115Z,99355.91
2023-01-21T09:57:24.364Z,99363.59
2023-01-21T10:00:08.391Z,99377.63
2023-01-21T10:02:53.838Z,99373.13
2023-01-21T10:05:42.264Z,99382.00
2023-01-21T10:08:39.965Z,99384.19
2023-01-21T10:11:10.004Z,99392.28
2023-01-21T10:14:01.454Z,99386.69
2023-01-21T10:17:06.348Z,99390.50
2023-01-21T10:19:42.460Z,99395.22
2023-01-21T10:22:14.307Z,99387.53
2023-01-21T10:24:51.697Z,99395.16
2023-01-21T10:29:56.058Z,99400.31
2023-01-21T10:34:55.843Z,99387.38
2023-01-21T10:40:45.453Z,99393.13
2023-01-21T10:43:33.379Z,99385.03
2023-01-21T10:46:17.441Z,99389.22
2023-01-21T10:48:55.477Z,99380.94
2023-01-21T10:54:16.098Z,99388.03
2023-01-21T10:56:53.975Z,99387.53
2023-01-21T10:59:27.994Z,99390.78
2023-01-21T11:02:21.021Z,99390.97
2023-01-21T11:04:51.488Z,99377.81
2023-01-21T11:15:18.661Z,99386.84
2023-01-21T11:20:45.215Z,99384.13
2023-01-21T11:23:37.793Z,99384.00
2023-01-21T11:26:35.044Z,99382.25
2023-01-21T11:29:18.177Z,99373.81
2023-01-21T11:31:48.826Z,99375.69
2023-01-21T11:34:24.408Z,99372.31
2023-01-21T11:42:14.297Z,99363.16
2023-01-21T11:44:59.283Z,99365.28
2023-01-21T11:47:30.692Z,99354.91
2023-01-21T11:50:30.088Z,99357.56
2023-01-21T11:53:17.083Z,99349.56
2023-01-21T11:55:57.215Z,99354.19
2023-01-21T11:58:32.226Z,99353.50
2023-01-21T12:01:01.941Z,99348.03
2023-01-21T12:03:37.336Z,99344.06
2023-01-21T12:06:07.537Z,99343.72
2023-01-21T12:11:07.489Z,99354.63
2023-01-21T12:14:08.619Z,99346.75
2023-01-21T12:19:23.749Z,99350.81
2023-01-21T12:22:04.945Z,99331.66
2023-01-21T12:24:44.520Z,99334.28
2023-01-21T12:27:13.848Z,99339.91
2023-01-21T12:30:21.973Z,99325.59
2023-01-21T12:33:04.032Z,99329.06
2023-01-21T12:35:39.551Z,99320.91
2023-01-21T12:38:26.726Z,99324.13
2023-01-21T12:41:20.830Z,99318.84
2023-01-21T12:44:02.479Z,99317.03
2023-01-21T12:46:43.639Z,99309.69
2023-01-21T12:49:19.054Z,99310.81
2023-01-21T12:51:50.431Z,99305.84
2023-01-21T12:54:19.879Z,99313.44
2023-01-21T12:57:01.417Z,99304.84
2023-01-21T12:59:44.370Z,99310.56
2023-01-21T13:02:23.978Z,99312.31
2023-01-21T13:04:53.994Z,99312.25
2023-01-21T13:07:48.861Z,99320.03
2023-01-21T13:10:32.186Z,99322.41
2023-01-21T13:13:06.434Z,99331.88
2023-01-21T13:15:38.018Z,99324.72
2023-01-21T13:18:25.284Z,99327.91
2023-01-21T13:20:56.203Z,99332.75
2023-01-21T13:26:26.761Z,99335.16
2023-01-21T13:29:20.925Z,99334.56
2023-01-21T13:32:22.328Z,99342.78
2023-01-21T13:35:36.411Z,99337.16
2023-01-21T13:41:21.557Z,99335.31
2023-01-21T13:44:14.725Z,99331.84
2023-01-21T13:47:25.635Z,99328.69
2023-01-21T13:50:18.275Z,99336.94
2023-01-21T13:53:06.155Z,99342.44
2023-01-21T13:56:12.453Z,99333.75
2023-01-21T13:59:05.498Z,99334.03
2023-01-21T14:01:44.551Z,99334.94
2023-01-21T14:04:34.952Z,99330.91
2023-01-21T14:07:19.318Z,99322.47
2023-01-21T14:09:53.884Z,99326.38
2023-01-21T14:12:26.963Z,99335.25
2023-01-21T14:15:05.677Z,99330.47
2023-01-21T14:17:50.040Z,99331.81
2023-01-21T14:20:38.753Z,99321.72
2023-01-21T14:23:25.410Z,99325.31
2023-01-21T14:26:28.255Z,99329.75
2023-01-21T14:29:12.139Z,99315.41
2023-01-21T14:31:47.079Z,99320.47
2023-01-21T14:34:17.205Z,99314.25
2023-01-21T14:37:06.644Z,99326.84
2023-01-21T14:39:59.329Z,99330.53
2023-01-21T14:42:46.239Z,99333.53
2023-01-21T14:45:15.513Z,99326.31
2023-01-21T14:47:57.991Z,99331.66
2023-01-21T14:56:16.793Z,99319.38
2023-01-21T14:58:59.376Z,99327.72
2023-01-21T15:04:24.708Z,99327.00
2023-01-21T15:07:04.161Z,99331.63
2023-01-21T15:09:36.056Z,99325.03
2023-01-21T15:12:07.062Z,99326.22
2023-01-21T15:14:36.844Z,99322.53
2023-01-21T15:17:03.551Z,99331.34
2023-01-21T15:19:38.070Z,99328.69
2023-01-21T15:22:18.577Z,99330.69
2023-01-21T15:25:18.789Z,99328.84
2023-01-21T15:28:23.930Z,99326.88
2023-01-21T15:31:03.314Z,99332.06
2023-01-21T15:33:30.787Z,99332.88
2023-01-21T15:36:00.128Z,99334.34
2023-01-21T15:38:28.189Z,99338.31
2023-01-21T15:41:00.379Z,99339.69
2023-01-21T15:43:55.266Z,99341.22
2023-01-21T15:49:22.569Z,99345.38
2023-01-21T15:52:16.679Z,99357.03
2023-01-21T15:54:55.814Z,99345.59
2023-01-21T15:57:34.591Z,99351.78
2023-01-21T16:00:23.653Z,99354.50
2023-01-21T16:03:11.880Z,99346.16
2023-01-21T16:05:52.770Z,99342.66
2023-01-21T16:08:51.129Z,99343.03
2023-01-21T16:11:30.056Z,99350.22
2023-01-21T16:13:56.830Z,99347.88
2023-01-21T16:16:46.986Z,99348.97
2023-01-21T16:19:30.644Z,99347.31
2023-01-21T16:22:01.419Z,99348.88
2023-01-21T16:24:29.997Z,99351.47
2023-01-21T16:27:19.874Z,99357.56
2023-01-21T16:29:46.771Z,99356.31
2023-01-21T16:32:20.234Z,99353.53
2023-01-21T16:34:48.061Z,99359.75
2023-01-21T16:37:20.928Z,99357.63
2023-01-21T16:39:48.154Z,99359.72
2023-01-21T16:42:23.929Z,99357.94
2023-01-21T16:44:51.538Z,99352.34
2023-01-21T16:47:27.707Z,99360.84
2023-01-21T16:52:24.561Z,99356.00
2023-01-21T16:54:56.304Z,99361.53
2023-01-21T16:57:32.002Z,99359.69
2023-01-21T17:00:02.764Z,99360.09
2023-01-21T17:02:32.730Z,99354.69
2023-01-21T17:05:06.320Z,99353.13
2023-01-21T17:07:39.074Z,99357.19
2023-01-21T17:10:22.045Z,99359.09
2023-01-21T17:12:53.982Z,99358.38
2023-01-21T17:15:36.344Z,99356.91
2023-01-21T17:18:04.946Z,99367.84
2023-01-21T17:23:21.097Z,99355.50
2023-01-21T17:26:00.499Z,99353.59
2023-01-21T17:28:39.395Z,99355.72
2023-01-21T17:31:23.183Z,99354.56
2023-01-21T17:34:28.985Z,99357.84
2023-01-21T17:36:57.371Z,99355.72
2023-01-21T17:39:49.171Z,99356.03
2023-01-21T17:42:15.618Z,99364.22
2023-01-21T17:44:46.396Z,99357.03
2023-01-21T17:47:29.513Z,99365.25
2023-01-21T17:50:47.390Z,99366.63
2023-01-21T17:53:27.414Z,99365.00
2023-01-21T17:56:00.149Z,99358.25
2023-01-21T17:58:34.129Z,99358.19
2023-01-21T18:01:02.311Z,99368.91
2023-01-21T18:03:30.076Z,99364.81
2023-01-21T18:05:57.739Z,99369.59
2023-01-21T18:08:32.808Z,99373.09
2023-01-21T18:10:59.453Z,99365.69
2023-01-21T18:13:26.033Z,99365.81
2023-01-21T18:15:54.188Z,99365.50
2023-01-21T18:18:25.571Z,99360.63
2023-01-21T18:20:52.327Z,99355.28
2023-01-21T18:23:21.929Z,99357.09
2023-01-21T18:25:55.226Z,99351.81
2023-01-21T18:28:33.668Z,99357.75
2023-01-21T18:31:02.369Z,99350.22
2023-01-21T18:33:29.064Z,99347.09
2023-01-21T18:35:55.695Z,99347.09
2023-01-21T18:38:27.616Z,99342.50
2023-01-21T18:40:55.214Z,99345.63
2023-01-21T18:43:22.776Z,99346.16
2023-01-21T18:45:53.998Z,99343.06
2023-01-21T18:48:27.444Z,99345.13
2023-01-21T18:50:54.213Z,99344.19
2023-01-21T18:53:20.798Z,99348.69
2023-01-21T18:55:53.600Z,99344.91
2023-01-21T18:58:21.630Z,99347.75
2023-01-21T19:03:17.201Z,99349.19
2023-01-21T19:05:47.888Z,99347.44
2023-01-21T19:08:19.677Z,99341.69
2023-01-21T19:10:46.188Z,99336.13
2023-01-21T19:13:12.990Z,99338.03
2023-01-21T19:15:39.608Z,99338.31
2023-01-21T19:18:13.663Z,99326.69
2023-01-21T19:20:41.385Z,99320.22
2023-01-21T19:23:16.330Z,99316.66
2023-01-21T19:28:15.103Z,99313.88
2023-01-21T19:30:45.081Z,99305.75
2023-01-21T19:33:12.526Z,99303.19
2023-01-21T19:35:42.495Z,99307.72
2023-01-21T19:38:15.569Z,99303.00
2023-01-21T19:40:42.985Z,99304.88
2023-01-21T19:43:14.449Z,99297.63
2023-01-21T19:45:41.218Z,99293.72
2023-01-21T19:48:12.929Z,99301.50
2023-01-21T19:50:39.821Z,99295.19
2023-01-21T19:53:06.411Z,99294.53
2023-01-21T19:55:36.108Z,99297.22
2023-01-21T19:58:05.428Z,99296.28
2023-01-21T20:00:35.044Z,99302.78
2023-01-21T20:03:02.453Z,99296.06
2023-01-21T20:05:33.976Z,99288.19
2023-01-21T20:08:01.105Z,99294.66
2023-01-21T20:10:33.623Z,99296.00
2023-01-21T20:13:02.720Z,99297.75
2023-01-21T20:15:32.527Z,99296.56
2023-01-21T20:18:01.278Z,99297.66
2023-01-21T20:20:33.488Z,99308.09
2023-01-21T20:23:00.989Z,99292.09
2023-01-21T20:25:38.742Z,99298.56
2023-01-21T20:28:16.596Z,99303.84
2023-01-21T20:30:43.443Z,99296.56
2023-01-21T20:33:11.745Z,99297.00
2023-01-21T20:35:38.402Z,99295.75
2023-01-21T20:38:11.034Z,99302.38
2023-01-21T20:40:37.721Z,99300.94
2023-01-21T20:43:04.368Z,99295.38
2023-01-21T20:45:47.837Z,99294.53
2023-01-21T20:48:26.072Z,99299.16
2023-01-21T20:50:53.169Z,99297.38
2023-01-21T20:53:20.207Z,99293.50
2023-01-21T20:55:49.831Z,99301.28
2023-01-21T20:58:19.042Z,99297.63
2023-01-21T21:00:46.702Z,99296.00
2023-01-21T21:03:15.126Z,99303.13
2023-01-21T21:05:41.718Z,99302.41
2023-01-21T21:08:13.910Z,99304.72
2023-01-21T21:10:40.586Z,99304.31
2023-01-21T21:13:07.490Z,99301.75
2023-01-21T21:15:40.797Z,99298.16
2023-01-21T21:18:08.272Z,99299.16
2023-01-21T21:20:40.130Z,99301.03
2023-01-21T21:23:07.738Z,99303.59
2023-01-21T21:25:40.497Z,99301.94
2023-01-21T21:28:07.656Z,99307.44
2023-01-21T21:30:34.253Z,99305.91
2023-01-21T21:33:01.339Z,99309.88
2023-01-21T21:35:46.934Z,99320.44
2023-01-21T21:38:21.641Z,99310.16
2023-01-21T21:40:52.786Z,99308.97
2023-01-21T21:43:38.793Z,99314.66
2023-01-21T21:46:28.280Z,99313.22
2023-01-21T21:48:54.839Z,99316.34
2023-01-21T21:51:22.521Z,99318.91
2023-01-21T21:53:52.086Z,99304.97
2023-01-21T21:56:23.237Z,99307.84
2023-01-21T21:58:51.475Z,99311.63
2023-01-21T22:01:23.887Z,99309.22
2023-01-21T22:03:51.105Z,99302.75
2023-01-21T22:06:20.148Z,99313.22
2023-01-21T22:08:46.897Z,99304.00
2023-01-21T22:11:17.082Z,99301.28
2023-01-21T22:13:44.640Z,99301.72
2023-01-21T22:16:14.323Z,99299.44
2023-01-21T22:18:40.950Z,99301.72
2023-01-21T22:21:19.271Z,99308.78
2023-01-21T22:23:46.008Z,99302.97
2023-01-21T22:26:14.498Z,99298.94
2023-01-21T22:28:42.265Z,99301.88
2023-01-21T22:31:14.688Z,99302.91
2023-01-21T22:33:41.328Z,99297.69
2023-01-21T22:36:10.606Z,99307.66
2023-01-21T22:38:40.314Z,99307.22
2023-01-21T22:41:08.019Z,99309.00
2023-01-21T22:43:35.133Z,99301.28
2023-01-21T22:46:01.997Z,99303.72
2023-01-21T22:48:30.531Z,99300.56
2023-01-21T22:50:59.568Z,99302.91
2023-01-21T22:53:27.482Z,99297.50
2023-01-21T22:55:57.946Z,99302.84
2023-01-21T22:58:25.287Z,99296.00
2023-01-21T23:00:53.113Z,99294.69
2023-01-21T23:03:20.950Z,99289.69
2023-01-21T23:05:47.807Z,99288.72
2023-01-21T23:08:15.281Z,99287.88
2023-01-21T23:10:42.694Z,99287.72
2023-01-21T23:13:10.525Z,99283.28
2023-01-21T23:15:42.272Z,99287.28
2023-01-21T23:18:08.828Z,99286.47
2023-01-21T23:20:37.006Z,99283.97
2023-01-21T23:23:03.575Z,99287.78
2023-01-21T23:25:30.246Z,99286.84
2023-01-21T23:28:04.927Z,99288.81
2023-01-21T23:30:39.366Z,99281.28
2023-01-21T23:33:13.753Z,99280.84
2023-01-21T23:35:52.309Z,99280.09
2023-01-21T23:38:27.720Z,99280.72
2023-01-21T23:44:05.014Z,99277.72
2023-01-21T23:46:35.355Z,99280.47
2023-01-21T23:49:06.734Z,99277.22
2023-01-21T23:55:07.505Z,99272.44
2023-01-21T23:58:00.113Z,99271.81
